sensor_id;sensor_type;location;lat;lon;timestamp;P1;durP1;ratioP1;P2;durP2;ratioP2
1054;SDS011;516;51.482;7.120;2023-03-14T00:02:01;7.80;;;3.47;;
1054;SDS011;516;51.482;7.120;2023-03-14T00:07:49;9.30;;;4.27;;
1054;SDS011;516;51.482;7.120;2023-03-14T00:13:37;3.53;;;3.23;;
1054;SDS011;516;51.482;7.120;2023-03-14T00:19:24;6.97;;;4.40;;
1054;SDS011;516;51.482;7.120;2023-03-14T00:25:12;9.20;;;3.77;;
1054;SDS011;516;51.482;7.120;2023-03-14T00:31:04;7.90;;;3.57;;
1054;SDS011;516;51.482;7.120;2023-03-14T00:36:44;6.13;;;4.00;;
1054;SDS011;516;51.482;7.120;2023-03-14T00:42:32;4.90;;;3.57;;
1054;SDS011;516;51.482;7.120;2023-03-14T00:48:20;7.47;;;3.90;;
1054;SDS011;516;51.482;7.120;2023-03-14T00:54:07;5.50;;;4.27;;
1054;SDS011;516;51.482;7.120;2023-03-14T00:59:55;4.23;;;1.73;;
1054;SDS011;516;51.482;7.120;2023-03-14T01:05:43;3.50;;;1.60;;
1054;SDS011;516;51.482;7.120;2023-03-14T01:11:32;2.10;;;1.30;;
1054;SDS011;516;51.482;7.120;2023-03-14T01:17:21;5.20;;;1.27;;
1054;SDS011;516;51.482;7.120;2023-03-14T01:23:09;4.10;;;1.53;;
1054;SDS011;516;51.482;7.120;2023-03-14T01:28:57;3.83;;;1.07;;
1054;SDS011;516;51.482;7.120;2023-03-14T01:44:48;6.97;;;1.93;;
1054;SDS011;516;51.482;7.120;2023-03-14T01:51:02;8.50;;;1.83;;
1054;SDS011;516;51.482;7.120;2023-03-14T01:56:57;3.73;;;1.53;;
1054;SDS011;516;51.482;7.120;2023-03-14T02:03:11;10.63;;;1.87;;
1054;SDS011;516;51.482;7.120;2023-03-14T02:09:03;8.30;;;2.17;;
1054;SDS011;516;51.482;7.120;2023-03-14T02:14:51;6.80;;;2.23;;
1054;SDS011;516;51.482;7.120;2023-03-14T02:20:43;5.60;;;2.00;;
1054;SDS011;516;51.482;7.120;2023-03-14T02:27:13;4.40;;;1.73;;
1054;SDS011;516;51.482;7.120;2023-03-14T02:33:04;5.40;;;2.00;;
1054;SDS011;516;51.482;7.120;2023-03-14T02:42:16;7.73;;;1.93;;
1054;SDS011;516;51.482;7.120;2023-03-14T02:48:13;4.70;;;1.90;;
1054;SDS011;516;51.482;7.120;2023-03-14T02:54:40;5.93;;;1.83;;
1054;SDS011;516;51.482;7.120;2023-03-14T03:00:28;8.40;;;4.83;;
1054;SDS011;516;51.482;7.120;2023-03-14T03:06:17;12.23;;;2.40;;
1054;SDS011;516;51.482;7.120;2023-03-14T03:12:04;4.90;;;2.03;;
1054;SDS011;516;51.482;7.120;2023-03-14T03:17:51;5.10;;;2.43;;
1054;SDS011;516;51.482;7.120;2023-03-14T03:23:38;2.87;;;2.00;;
1054;SDS011;516;51.482;7.120;2023-03-14T03:29:26;6.53;;;2.90;;
1054;SDS011;516;51.482;7.120;2023-03-14T03:35:13;5.27;;;2.27;;
1054;SDS011;516;51.482;7.120;2023-03-14T03:44:29;5.40;;;1.90;;
1054;SDS011;516;51.482;7.120;2023-03-14T03:50:16;6.87;;;2.77;;
1054;SDS011;516;51.482;7.120;2023-03-14T03:56:04;4.50;;;2.03;;
1054;SDS011;516;51.482;7.120;2023-03-14T04:01:52;5.30;;;2.27;;
1054;SDS011;516;51.482;7.120;2023-03-14T04:07:40;7.23;;;2.23;;
1054;SDS011;516;51.482;7.120;2023-03-14T04:13:28;8.27;;;2.10;;
1054;SDS011;516;51.482;7.120;2023-03-14T04:19:16;3.90;;;2.10;;
1054;SDS011;516;51.482;7.120;2023-03-14T04:25:04;4.53;;;1.63;;
1054;SDS011;516;51.482;7.120;2023-03-14T04:30:52;3.40;;;1.70;;
1054;SDS011;516;51.482;7.120;2023-03-14T04:36:40;3.50;;;1.27;;
1054;SDS011;516;51.482;7.120;2023-03-14T04:45:50;1.40;;;0.60;;
1054;SDS011;516;51.482;7.120;2023-03-14T04:51:38;2.40;;;0.90;;
1054;SDS011;516;51.482;7.120;2023-03-14T04:57:26;2.93;;;0.77;;
1054;SDS011;516;51.482;7.120;2023-03-14T05:03:17;6.50;;;1.00;;
1054;SDS011;516;51.482;7.120;2023-03-14T05:09:05;4.03;;;1.17;;
1054;SDS011;516;51.482;7.120;2023-03-14T05:14:53;1.80;;;0.90;;
1054;SDS011;516;51.482;7.120;2023-03-14T05:20:22;4.33;;;1.07;;
1054;SDS011;516;51.482;7.120;2023-03-14T05:26:10;2.17;;;0.90;;
1054;SDS011;516;51.482;7.120;2023-03-14T05:31:57;6.20;;;0.83;;
1054;SDS011;516;51.482;7.120;2023-03-14T05:37:45;1.70;;;0.77;;
1054;SDS011;516;51.482;7.120;2023-03-14T05:43:33;4.10;;;1.00;;
1054;SDS011;516;51.482;7.120;2023-03-14T05:49:20;4.33;;;1.27;;
1054;SDS011;516;51.482;7.120;2023-03-14T05:55:08;2.90;;;1.00;;
1054;SDS011;516;51.482;7.120;2023-03-14T06:00:56;1.90;;;1.23;;
1054;SDS011;516;51.482;7.120;2023-03-14T06:06:44;3.67;;;1.67;;
1054;SDS011;516;51.482;7.120;2023-03-14T06:12:32;5.50;;;2.10;;
1054;SDS011;516;51.482;7.120;2023-03-14T06:18:19;9.27;;;3.03;;
1054;SDS011;516;51.482;7.120;2023-03-14T06:24:07;5.60;;;3.03;;
1054;SDS011;516;51.482;7.120;2023-03-14T06:29:55;4.20;;;2.67;;
1054;SDS011;516;51.482;7.120;2023-03-14T06:35:43;5.17;;;2.50;;
1054;SDS011;516;51.482;7.120;2023-03-14T06:51:37;3.87;;;2.40;;
1054;SDS011;516;51.482;7.120;2023-03-14T06:57:24;3.77;;;1.17;;
1054;SDS011;516;51.482;7.120;2023-03-14T07:03:13;2.10;;;1.30;;
1054;SDS011;516;51.482;7.120;2023-03-14T07:09:02;3.70;;;1.57;;
1054;SDS011;516;51.482;7.120;2023-03-14T07:14:50;1.70;;;0.97;;
1054;SDS011;516;51.482;7.120;2023-03-14T07:20:38;2.07;;;1.03;;
1054;SDS011;516;51.482;7.120;2023-03-14T07:26:26;2.17;;;0.90;;
1054;SDS011;516;51.482;7.120;2023-03-14T07:32:14;2.60;;;0.80;;
1054;SDS011;516;51.482;7.120;2023-03-14T07:38:01;2.17;;;1.13;;
1054;SDS011;516;51.482;7.120;2023-03-14T07:43:59;1.90;;;0.80;;
1054;SDS011;516;51.482;7.120;2023-03-14T07:49:47;2.03;;;1.00;;
1054;SDS011;516;51.482;7.120;2023-03-14T07:55:34;2.50;;;1.30;;
1054;SDS011;516;51.482;7.120;2023-03-14T08:01:21;2.43;;;0.97;;
1054;SDS011;516;51.482;7.120;2023-03-14T08:07:08;1.60;;;1.00;;
1054;SDS011;516;51.482;7.120;2023-03-14T08:12:56;2.17;;;1.30;;
1054;SDS011;516;51.482;7.120;2023-03-14T08:18:44;3.60;;;2.03;;
1054;SDS011;516;51.482;7.120;2023-03-14T08:24:33;2.10;;;1.40;;
1054;SDS011;516;51.482;7.120;2023-03-14T08:30:21;5.30;;;2.40;;
1054;SDS011;516;51.482;7.120;2023-03-14T08:36:09;4.53;;;1.97;;
1054;SDS011;516;51.482;7.120;2023-03-14T08:52:13;6.80;;;2.03;;
1054;SDS011;516;51.482;7.120;2023-03-14T08:57:45;2.00;;;1.20;;
1054;SDS011;516;51.482;7.120;2023-03-14T09:03:33;3.70;;;2.93;;
1054;SDS011;516;51.482;7.120;2023-03-14T09:09:20;2.00;;;0.90;;
1054;SDS011;516;51.482;7.120;2023-03-14T09:15:07;2.83;;;1.40;;
1054;SDS011;516;51.482;7.120;2023-03-14T09:20:55;2.23;;;1.27;;
1054;SDS011;516;51.482;7.120;2023-03-14T09:26:43;4.60;;;2.27;;
1054;SDS011;516;51.482;7.120;2023-03-14T09:32:30;1.80;;;1.27;;
1054;SDS011;516;51.482;7.120;2023-03-14T09:38:18;2.03;;;0.93;;
1054;SDS011;516;51.482;7.120;2023-03-14T09:43:42;2.27;;;0.90;;
1054;SDS011;516;51.482;7.120;2023-03-14T09:49:37;1.50;;;0.70;;
1054;SDS011;516;51.482;7.120;2023-03-14T09:55:26;3.00;;;0.90;;
1054;SDS011;516;51.482;7.120;2023-03-14T10:01:15;2.43;;;1.30;;
1054;SDS011;516;51.482;7.120;2023-03-14T10:07:08;2.07;;;0.93;;
1054;SDS011;516;51.482;7.120;2023-03-14T10:13:10;1.60;;;0.87;;
1054;SDS011;516;51.482;7.120;2023-03-14T10:19:37;2.50;;;0.90;;
1054;SDS011;516;51.482;7.120;2023-03-14T10:26:12;4.50;;;1.70;;
1054;SDS011;516;51.482;7.120;2023-03-14T10:32:06;2.40;;;1.60;;
1054;SDS011;516;51.482;7.120;2023-03-14T10:38:24;2.77;;;2.03;;
1054;SDS011;516;51.482;7.120;2023-03-14T10:51:25;5.60;;;2.23;;
1054;SDS011;516;51.482;7.120;2023-03-14T10:57:14;2.77;;;1.63;;
1054;SDS011;516;51.482;7.120;2023-03-14T11:03:10;4.80;;;1.47;;
1054;SDS011;516;51.482;7.120;2023-03-14T11:15:05;3.70;;;3.10;;
1054;SDS011;516;51.482;7.120;2023-03-14T11:33:27;2.30;;;2.10;;
1054;SDS011;516;51.482;7.120;2023-03-14T11:40:05;6.70;;;2.33;;
1054;SDS011;516;51.482;7.120;2023-03-14T11:46:35;3.70;;;2.70;;
1054;SDS011;516;51.482;7.120;2023-03-14T11:49:11;6.87;;;3.70;;
1054;SDS011;516;51.482;7.120;2023-03-14T11:55:39;5.53;;;3.20;;
1054;SDS011;516;51.482;7.120;2023-03-14T12:01:31;3.10;;;2.13;;
1054;SDS011;516;51.482;7.120;2023-03-14T12:07:58;6.27;;;2.27;;
1054;SDS011;516;51.482;7.120;2023-03-14T12:14:30;10.43;;;2.97;;
1054;SDS011;516;51.482;7.120;2023-03-14T12:20:22;3.30;;;2.47;;
1054;SDS011;516;51.482;7.120;2023-03-14T12:50:19;6.50;;;3.37;;
1054;SDS011;516;51.482;7.120;2023-03-14T13:02:42;3.43;;;2.53;;
1054;SDS011;516;51.482;7.120;2023-03-14T13:08:36;5.80;;;2.37;;
1054;SDS011;516;51.482;7.120;2023-03-14T13:14:29;5.40;;;2.20;;
1054;SDS011;516;51.482;7.120;2023-03-14T13:20:21;8.83;;;5.63;;
1054;SDS011;516;51.482;7.120;2023-03-14T13:26:48;9.10;;;4.70;;
1054;SDS011;516;51.482;7.120;2023-03-14T13:32:40;19.00;;;4.40;;
1054;SDS011;516;51.482;7.120;2023-03-14T13:38:30;15.83;;;3.20;;
1054;SDS011;516;51.482;7.120;2023-03-14T13:44:25;13.83;;;3.90;;
1054;SDS011;516;51.482;7.120;2023-03-14T13:50:18;11.30;;;3.60;;
1054;SDS011;516;51.482;7.120;2023-03-14T13:56:05;12.83;;;4.53;;
1054;SDS011;516;51.482;7.120;2023-03-14T14:01:57;12.40;;;4.20;;
1054;SDS011;516;51.482;7.120;2023-03-14T14:07:48;12.33;;;4.17;;
1054;SDS011;516;51.482;7.120;2023-03-14T14:13:37;11.80;;;5.10;;
1054;SDS011;516;51.482;7.120;2023-03-14T14:19:25;11.27;;;5.83;;
1054;SDS011;516;51.482;7.120;2023-03-14T14:25:15;11.30;;;5.60;;
1054;SDS011;516;51.482;7.120;2023-03-14T14:37:31;7.77;;;6.90;;
1054;SDS011;516;51.482;7.120;2023-03-14T14:43:46;8.97;;;7.13;;
1054;SDS011;516;51.482;7.120;2023-03-14T14:49:34;8.23;;;7.53;;
1054;SDS011;516;51.482;7.120;2023-03-14T14:58:40;9.30;;;8.50;;
1054;SDS011;516;51.482;7.120;2023-03-14T15:04:30;11.53;;;7.67;;
1054;SDS011;516;51.482;7.120;2023-03-14T15:10:20;7.63;;;7.03;;
1054;SDS011;516;51.482;7.120;2023-03-14T15:16:13;7.90;;;7.20;;
1054;SDS011;516;51.482;7.120;2023-03-14T15:22:04;10.73;;;7.63;;
1054;SDS011;516;51.482;7.120;2023-03-14T15:27:56;8.00;;;7.40;;
1054;SDS011;516;51.482;7.120;2023-03-14T15:33:44;7.60;;;6.90;;
1054;SDS011;516;51.482;7.120;2023-03-14T15:39:33;9.63;;;8.23;;
1054;SDS011;516;51.482;7.120;2023-03-14T15:45:21;8.47;;;7.80;;
1054;SDS011;516;51.482;7.120;2023-03-14T15:50:46;11.00;;;10.00;;
1054;SDS011;516;51.482;7.120;2023-03-14T15:56:34;8.87;;;8.30;;
1054;SDS011;516;51.482;7.120;2023-03-14T16:02:21;20.47;;;8.50;;
1054;SDS011;516;51.482;7.120;2023-03-14T16:08:09;8.80;;;8.10;;
1054;SDS011;516;51.482;7.120;2023-03-14T16:13:57;9.07;;;8.33;;
1054;SDS011;516;51.482;7.120;2023-03-14T16:19:44;8.63;;;7.97;;
1054;SDS011;516;51.482;7.120;2023-03-14T16:25:32;9.03;;;8.43;;
1054;SDS011;516;51.482;7.120;2023-03-14T16:31:20;8.30;;;7.70;;
1054;SDS011;516;51.482;7.120;2023-03-14T16:37:09;9.67;;;8.87;;
1054;SDS011;516;51.482;7.120;2023-03-14T16:42:57;8.20;;;7.60;;
1054;SDS011;516;51.482;7.120;2023-03-14T16:58:42;7.37;;;6.97;;
1054;SDS011;516;51.482;7.120;2023-03-14T17:04:30;9.40;;;8.50;;
1054;SDS011;516;51.482;7.120;2023-03-14T17:10:18;8.03;;;7.50;;
1054;SDS011;516;51.482;7.120;2023-03-14T17:16:06;9.17;;;8.60;;
1054;SDS011;516;51.482;7.120;2023-03-14T17:21:35;10.20;;;8.40;;
1054;SDS011;516;51.482;7.120;2023-03-14T17:27:23;9.33;;;8.47;;
1054;SDS011;516;51.482;7.120;2023-03-14T17:33:11;13.60;;;9.00;;
1054;SDS011;516;51.482;7.120;2023-03-14T17:38:59;13.37;;;10.83;;
1054;SDS011;516;51.482;7.120;2023-03-14T17:44:47;9.70;;;8.90;;
1054;SDS011;516;51.482;7.120;2023-03-14T17:50:36;7.83;;;7.33;;
1054;SDS011;516;51.482;7.120;2023-03-14T17:56:24;9.90;;;8.90;;
1054;SDS011;516;51.482;7.120;2023-03-14T18:02:12;8.77;;;7.87;;
1054;SDS011;516;51.482;7.120;2023-03-14T18:08:00;10.00;;;8.40;;
1054;SDS011;516;51.482;7.120;2023-03-14T18:13:47;11.00;;;9.87;;
1054;SDS011;516;51.482;7.120;2023-03-14T18:19:35;9.97;;;9.00;;
1054;SDS011;516;51.482;7.120;2023-03-14T18:25:23;8.83;;;8.33;;
1054;SDS011;516;51.482;7.120;2023-03-14T18:31:12;8.07;;;7.27;;
1054;SDS011;516;51.482;7.120;2023-03-14T18:37:01;7.63;;;7.10;;
1054;SDS011;516;51.482;7.120;2023-03-14T18:42:49;8.73;;;8.20;;
1054;SDS011;516;51.482;7.120;2023-03-14T18:58:40;8.53;;;7.80;;
1054;SDS011;516;51.482;7.120;2023-03-14T19:04:28;12.20;;;8.10;;
1054;SDS011;516;51.482;7.120;2023-03-14T19:10:16;8.20;;;7.60;;
1054;SDS011;516;51.482;7.120;2023-03-14T19:16:04;7.70;;;7.10;;
1054;SDS011;516;51.482;7.120;2023-03-14T19:21:52;12.87;;;9.57;;
1054;SDS011;516;51.482;7.120;2023-03-14T19:27:40;11.13;;;9.60;;
1054;SDS011;516;51.482;7.120;2023-03-14T19:33:28;10.10;;;9.20;;
1054;SDS011;516;51.482;7.120;2023-03-14T19:39:17;13.00;;;8.97;;
1054;SDS011;516;51.482;7.120;2023-03-14T19:45:04;10.53;;;8.53;;
1054;SDS011;516;51.482;7.120;2023-03-14T19:50:54;9.13;;;8.33;;
1054;SDS011;516;51.482;7.120;2023-03-14T19:56:41;12.70;;;9.30;;
1054;SDS011;516;51.482;7.120;2023-03-14T20:02:28;12.33;;;9.67;;
1054;SDS011;516;51.482;7.120;2023-03-14T20:08:15;10.50;;;9.07;;
1054;SDS011;516;51.482;7.120;2023-03-14T20:14:02;14.40;;;8.60;;
1054;SDS011;516;51.482;7.120;2023-03-14T20:19:50;9.67;;;8.67;;
1054;SDS011;516;51.482;7.120;2023-03-14T20:25:37;8.93;;;8.27;;
1054;SDS011;516;51.482;7.120;2023-03-14T20:31:25;14.67;;;8.80;;
1054;SDS011;516;51.482;7.120;2023-03-14T20:37:13;9.57;;;8.57;;
1054;SDS011;516;51.482;7.120;2023-03-14T20:43:01;9.70;;;8.20;;
1054;SDS011;516;51.482;7.120;2023-03-14T20:58:43;8.03;;;7.47;;
1054;SDS011;516;51.482;7.120;2023-03-14T21:04:31;11.03;;;7.17;;
1054;SDS011;516;51.482;7.120;2023-03-14T21:10:19;16.37;;;9.33;;
1054;SDS011;516;51.482;7.120;2023-03-14T21:16:07;10.17;;;9.17;;
1054;SDS011;516;51.482;7.120;2023-03-14T21:21:58;7.63;;;6.90;;
1054;SDS011;516;51.482;7.120;2023-03-14T21:27:47;9.17;;;6.93;;
1054;SDS011;516;51.482;7.120;2023-03-14T21:33:36;9.47;;;8.57;;
1054;SDS011;516;51.482;7.120;2023-03-14T21:39:24;9.90;;;7.70;;
1054;SDS011;516;51.482;7.120;2023-03-14T21:45:11;10.00;;;8.00;;
1054;SDS011;516;51.482;7.120;2023-03-14T21:50:48;12.27;;;7.77;;
1054;SDS011;516;51.482;7.120;2023-03-14T21:56:36;8.90;;;8.10;;
1054;SDS011;516;51.482;7.120;2023-03-14T22:02:24;11.73;;;7.60;;
1054;SDS011;516;51.482;7.120;2023-03-14T22:08:12;8.50;;;7.27;;
1054;SDS011;516;51.482;7.120;2023-03-14T22:14:01;15.27;;;7.43;;
1054;SDS011;516;51.482;7.120;2023-03-14T22:19:49;10.00;;;7.40;;
1054;SDS011;516;51.482;7.120;2023-03-14T22:25:38;8.30;;;7.10;;
1054;SDS011;516;51.482;7.120;2023-03-14T22:31:27;10.03;;;7.13;;
1054;SDS011;516;51.482;7.120;2023-03-14T22:37:14;12.20;;;7.27;;
1054;SDS011;516;51.482;7.120;2023-03-14T22:43:02;11.73;;;6.77;;
1054;SDS011;516;51.482;7.120;2023-03-14T22:58:44;7.80;;;7.10;;
1054;SDS011;516;51.482;7.120;2023-03-14T23:04:32;8.77;;;7.63;;
1054;SDS011;516;51.482;7.120;2023-03-14T23:10:20;8.63;;;7.90;;
1054;SDS011;516;51.482;7.120;2023-03-14T23:16:09;7.70;;;6.90;;
1054;SDS011;516;51.482;7.120;2023-03-14T23:21:58;8.23;;;7.40;;
1054;SDS011;516;51.482;7.120;2023-03-14T23:27:46;9.20;;;7.83;;
1054;SDS011;516;51.482;7.120;2023-03-14T23:33:34;9.40;;;8.50;;
1054;SDS011;516;51.482;7.120;2023-03-14T23:39:23;11.23;;;6.50;;
1054;SDS011;516;51.482;7.120;2023-03-14T23:45:11;9.23;;;5.90;;
1054;SDS011;516;51.482;7.120;2023-03-14T23:50:56;9.03;;;7.33;;
1054;SDS011;516;51.482;7.120;2023-03-14T23:56:46;7.60;;;6.07;;
